createdAt,value
2023-04-26T00:00:09.603Z,99.90
2023-04-26T00:02:37.670Z,99.90
2023-04-26T00:05:08.404Z,99.90
2023-04-26T00:07:56.136Z,99.90
2023-04-26T00:10:24.092Z,99.90
2023-04-26T00:12:52.172Z,99.90
2023-04-26T00:15:19.572Z,99.90
2023-04-26T00:17:47.566Z,99.90
2023-04-26T00:20:15.304Z,99.90
2023-04-26T00:22:44.407Z,99.90
2023-04-26T00:25:12.755Z,99.90
2023-04-26T00:27:40.890Z,99.90
2023-04-26T00:30:13.765Z,99.90
2023-04-26T00:32:41.260Z,99.90
2023-04-26T00:35:09.453Z,99.90
2023-04-26T00:37:37.897Z,99.90
2023-04-26T00:40:07.490Z,99.90
2023-04-26T00:42:35.256Z,99.90
2023-04-26T00:45:02.878Z,99.90
2023-04-26T00:47:31.483Z,99.90
2023-04-26T00:50:00.350Z,99.90
2023-04-26T00:52:29.274Z,99.90
2023-04-26T00:55:14.467Z,99.90
2023-04-26T00:57:42.010Z,99.90
2023-04-26T01:00:10.597Z,99.90
2023-04-26T01:02:38.963Z,99.90
2023-04-26T01:05:08.037Z,99.90
2023-04-26T01:07:39.105Z,99.90
2023-04-26T01:10:07.150Z,99.90
2023-04-26T01:12:36.638Z,99.90
2023-04-26T01:15:06.980Z,99.90
2023-04-26T01:17:34.792Z,99.90
2023-04-26T01:20:21.862Z,99.90
2023-04-26T01:22:49.797Z,99.90
2023-04-26T01:25:17.500Z,99.90
2023-04-26T01:27:46.151Z,99.90
2023-04-26T01:30:17.137Z,99.90
2023-04-26T01:35:30.567Z,99.90
2023-04-26T01:37:58.841Z,99.90
2023-04-26T01:40:28.241Z,99.90
2023-04-26T01:43:10.625Z,99.90
2023-04-26T01:45:38.189Z,99.90
2023-04-26T01:48:24.797Z,99.90
2023-04-26T01:51:12.338Z,99.90
2023-04-26T01:53:53.963Z,99.90
2023-04-26T01:56:24.773Z,99.90
2023-04-26T01:58:55.849Z,99.90
2023-04-26T02:01:24.100Z,99.90
2023-04-26T02:03:54.081Z,99.90
2023-04-26T02:06:21.961Z,99.90
2023-04-26T02:08:49.946Z,99.90
2023-04-26T02:11:20.772Z,99.90
2023-04-26T02:13:48.460Z,99.90
2023-04-26T02:16:17.177Z,99.90
2023-04-26T02:18:46.244Z,99.90
2023-04-26T02:21:14.312Z,99.90
2023-04-26T02:23:43.004Z,99.90
2023-04-26T02:26:12.146Z,99.90
2023-04-26T02:28:40.190Z,99.90
2023-04-26T02:31:08.886Z,99.90
2023-04-26T02:33:36.542Z,99.90
2023-04-26T02:36:08.482Z,99.90
2023-04-26T02:38:39.634Z,99.90
2023-04-26T02:41:07.207Z,99.90
2023-04-26T02:43:34.792Z,99.90
2023-04-26T02:46:02.464Z,99.90
2023-04-26T02:48:31.998Z,99.90
2023-04-26T02:50:59.474Z,99.90
2023-04-26T02:53:40.091Z,99.90
2023-04-26T02:56:08.148Z,99.90
2023-04-26T02:58:35.534Z,99.90
2023-04-26T03:01:04.513Z,99.90
2023-04-26T03:03:33.011Z,99.90
2023-04-26T03:06:00.812Z,99.90
2023-04-26T03:08:28.226Z,99.90
2023-04-26T03:11:12.486Z,99.90
2023-04-26T03:13:40.143Z,99.90
2023-04-26T03:16:08.988Z,99.90
2023-04-26T03:18:40.655Z,99.90
2023-04-26T03:21:09.270Z,99.90
2023-04-26T03:23:37.038Z,99.90
2023-04-26T03:26:04.989Z,99.90
2023-04-26T03:28:33.873Z,99.90
2023-04-26T03:31:02.415Z,99.90
2023-04-26T03:33:32.415Z,99.90
2023-04-26T03:36:00.394Z,99.90
2023-04-26T03:38:28.751Z,99.90
2023-04-26T03:40:57.153Z,99.90
2023-04-26T03:43:25.129Z,99.90
2023-04-26T03:45:53.457Z,99.90
2023-04-26T03:48:20.966Z,99.90
2023-04-26T03:53:34.762Z,99.90
2023-04-26T03:56:02.492Z,99.90
2023-04-26T03:58:31.238Z,99.90
2023-04-26T04:00:59.091Z,99.90
2023-04-26T04:03:26.758Z,99.90
2023-04-26T04:05:54.694Z,99.90
2023-04-26T04:08:22.137Z,99.90
2023-04-26T04:10:50.316Z,99.90
2023-04-26T04:13:31.434Z,99.90
2023-04-26T04:16:13.217Z,99.90
2023-04-26T04:18:41.439Z,99.90
2023-04-26T04:21:09.277Z,99.90
2023-04-26T04:23:37.354Z,99.90
2023-04-26T04:26:06.872Z,99.90
2023-04-26T04:28:34.635Z,99.90
2023-04-26T04:31:02.602Z,99.90
2023-04-26T04:33:30.454Z,99.90
2023-04-26T04:36:00.797Z,99.90
2023-04-26T04:38:29.816Z,99.90
2023-04-26T04:40:57.342Z,99.90
2023-04-26T04:43:29.756Z,99.90
2023-04-26T04:45:57.377Z,99.90
2023-04-26T04:48:25.196Z,99.90
2023-04-26T04:50:52.899Z,99.90
2023-04-26T04:53:20.569Z,99.90
2023-04-26T04:55:47.853Z,99.90
2023-04-26T04:58:17.242Z,99.90
2023-04-26T05:00:55.626Z,99.90
2023-04-26T05:03:28.527Z,99.90
2023-04-26T05:05:56.799Z,99.90
2023-04-26T05:08:25.776Z,99.90
2023-04-26T05:10:53.621Z,99.90
2023-04-26T05:13:21.447Z,99.90
2023-04-26T05:15:49.176Z,99.90
2023-04-26T05:18:17.035Z,99.90
2023-04-26T05:20:44.922Z,99.90
2023-04-26T05:23:12.598Z,99.90
2023-04-26T05:25:40.443Z,99.90
2023-04-26T05:28:27.114Z,99.90
2023-04-26T05:31:11.447Z,99.90
2023-04-26T05:34:00.992Z,99.90
2023-04-26T05:36:33.090Z,99.90
2023-04-26T05:39:14.614Z,99.90
2023-04-26T05:41:42.619Z,99.90
2023-04-26T05:44:10.694Z,99.90
2023-04-26T05:46:40.158Z,99.90
2023-04-26T05:49:09.314Z,99.90
2023-04-26T05:51:36.812Z,99.90
2023-04-26T05:54:06.986Z,99.90
2023-04-26T05:56:34.559Z,99.90
2023-04-26T05:59:02.590Z,99.90
2023-04-26T06:01:31.532Z,99.90
2023-04-26T06:04:19.593Z,99.90
2023-04-26T06:06:49.163Z,99.90
2023-04-26T06:09:20.251Z,99.90
2023-04-26T06:11:48.232Z,99.90
2023-04-26T06:14:29.572Z,99.90
2023-04-26T06:16:45.294Z,99.90
2023-04-26T06:19:12.695Z,99.90
2023-04-26T06:21:40.007Z,99.90
2023-04-26T06:24:08.037Z,99.90
2023-04-26T06:26:37.575Z,99.90
2023-04-26T06:29:06.203Z,99.90
2023-04-26T06:31:34.864Z,99.90
2023-04-26T06:34:03.563Z,99.90
2023-04-26T06:36:33.162Z,99.90
2023-04-26T06:39:00.846Z,99.90
2023-04-26T06:41:28.453Z,99.90
2023-04-26T06:43:56.690Z,99.90
2023-04-26T06:46:26.417Z,99.90
2023-04-26T06:48:57.171Z,99.90
2023-04-26T06:51:25.744Z,99.90
2023-04-26T06:53:56.099Z,99.90
2023-04-26T06:56:24.118Z,99.90
2023-04-26T06:59:03.088Z,99.90
2023-04-26T07:01:36.699Z,99.90
2023-04-26T07:04:08.105Z,99.90
2023-04-26T07:06:36.778Z,99.90
2023-04-26T07:09:05.643Z,99.90
2023-04-26T07:11:33.563Z,99.90
2023-04-26T07:14:02.279Z,99.90
2023-04-26T07:16:30.014Z,99.90
2023-04-26T07:18:58.829Z,99.90
2023-04-26T07:21:27.383Z,99.90
2023-04-26T07:23:58.899Z,99.90
2023-04-26T07:26:27.192Z,99.90
2023-04-26T07:28:56.315Z,99.90
2023-04-26T07:31:24.158Z,99.90
2023-04-26T07:33:52.278Z,99.90
2023-04-26T07:36:21.951Z,99.90
2023-04-26T07:38:53.014Z,99.90
2023-04-26T07:41:21.029Z,99.90
2023-04-26T07:43:52.278Z,99.90
2023-04-26T07:46:21.012Z,99.90
2023-04-26T07:48:49.008Z,99.90
2023-04-26T07:51:16.617Z,99.90
2023-04-26T07:53:45.274Z,99.90
2023-04-26T07:56:13.056Z,99.90
2023-04-26T07:58:41.084Z,99.90
2023-04-26T08:01:09.122Z,99.90
2023-04-26T08:03:37.314Z,99.90
2023-04-26T08:06:05.458Z,99.90
2023-04-26T08:08:33.681Z,98.70
2023-04-26T08:11:03.623Z,98.00
2023-04-26T08:13:31.189Z,97.40
2023-04-26T08:15:58.886Z,97.40
2023-04-26T08:18:26.608Z,96.50
2023-04-26T08:20:56.380Z,95.90
2023-04-26T08:23:23.778Z,94.90
2023-04-26T08:25:51.587Z,94.90
2023-04-26T08:28:19.270Z,94.70
2023-04-26T08:30:47.170Z,93.40
2023-04-26T08:33:15.005Z,93.70
2023-04-26T08:35:42.599Z,94.10
2023-04-26T08:38:13.404Z,93.50
2023-04-26T08:40:44.544Z,93.30
2023-04-26T08:43:25.932Z,93.10
2023-04-26T08:45:55.218Z,93.20
2023-04-26T08:48:23.784Z,93.90
2023-04-26T08:50:53.139Z,93.60
2023-04-26T08:53:23.256Z,92.80
2023-04-26T08:55:51.771Z,93.80
2023-04-26T08:58:19.401Z,94.60
2023-04-26T09:00:47.199Z,94.80
2023-04-26T09:03:15.023Z,95.30
2023-04-26T09:05:44.559Z,94.60
2023-04-26T09:08:16.277Z,94.10
2023-04-26T09:10:44.376Z,93.40
2023-04-26T09:13:12.646Z,92.90
2023-04-26T09:15:41.601Z,92.80
2023-04-26T09:18:26.687Z,93.50
2023-04-26T09:21:06.645Z,93.40
2023-04-26T09:23:34.820Z,93.60
2023-04-26T09:26:22.685Z,93.40
2023-04-26T09:28:51.063Z,94.30
2023-04-26T09:31:40.764Z,94.40
2023-04-26T09:34:09.904Z,93.90
2023-04-26T09:36:48.504Z,94.30
2023-04-26T09:39:18.403Z,94.70
2023-04-26T09:41:46.151Z,95.40
2023-04-26T09:44:44.783Z,95.80
2023-04-26T09:47:12.863Z,95.10
2023-04-26T09:49:49.234Z,96.10
2023-04-26T09:52:44.205Z,97.00
2023-04-26T09:55:19.075Z,97.80
2023-04-26T09:57:46.241Z,98.80
2023-04-26T10:00:15.053Z,98.40
2023-04-26T10:02:42.866Z,98.50
2023-04-26T10:05:13.845Z,99.80
2023-04-26T10:07:42.823Z,99.90
2023-04-26T10:10:12.297Z,99.90
2023-04-26T10:12:43.782Z,99.90
2023-04-26T10:15:12.326Z,99.90
2023-04-26T10:17:40.059Z,99.90
2023-04-26T10:20:11.954Z,99.90
2023-04-26T10:22:49.477Z,99.90
2023-04-26T10:25:38.098Z,99.90
2023-04-26T10:28:06.530Z,99.90
2023-04-26T10:30:36.442Z,99.90
2023-04-26T10:33:11.700Z,99.90
2023-04-26T10:35:43.277Z,99.90
2023-04-26T10:38:10.751Z,99.90
2023-04-26T10:40:40.489Z,99.10
2023-04-26T10:43:20.775Z,99.10
2023-04-26T10:45:49.765Z,99.90
2023-04-26T10:48:23.728Z,99.90
2023-04-26T10:51:11.443Z,99.90
2023-04-26T10:53:52.625Z,99.90
2023-04-26T10:56:27.889Z,99.90
2023-04-26T11:01:41.652Z,99.90
2023-04-26T11:04:12.853Z,99.90
2023-04-26T11:06:54.479Z,99.90
2023-04-26T11:09:40.081Z,99.90
2023-04-26T11:12:13.979Z,99.70
2023-04-26T11:14:45.220Z,99.70
2023-04-26T11:17:13.514Z,98.50
2023-04-26T11:19:42.521Z,98.40
2023-04-26T11:22:10.269Z,98.40
2023-04-26T11:24:39.196Z,99.30
2023-04-26T11:27:11.336Z,99.10
2023-04-26T11:29:39.743Z,99.50
2023-04-26T11:32:07.884Z,98.50
2023-04-26T11:34:37.384Z,96.60
2023-04-26T11:37:06.895Z,96.30
2023-04-26T11:39:37.906Z,96.60
2023-04-26T11:42:07.535Z,96.90
2023-04-26T11:44:36.084Z,98.00
2023-04-26T11:47:04.717Z,99.90
2023-04-26T11:49:33.872Z,99.90
2023-04-26T11:52:02.070Z,99.90
2023-04-26T11:54:31.695Z,99.40
2023-04-26T11:57:00.483Z,99.70
2023-04-26T11:59:32.515Z,99.70
2023-04-26T12:02:02.715Z,99.90
2023-04-26T12:04:34.344Z,99.90
2023-04-26T12:07:07.627Z,99.90
2023-04-26T12:09:35.869Z,99.90
2023-04-26T12:12:06.665Z,99.90
2023-04-26T12:14:35.396Z,99.80
2023-04-26T12:17:04.529Z,99.90
2023-04-26T12:19:38.052Z,99.80
2023-04-26T12:22:08.731Z,98.90
2023-04-26T12:24:37.824Z,97.90
2023-04-26T12:27:07.440Z,99.20
2023-04-26T12:29:35.629Z,99.90
2023-04-26T12:32:03.662Z,99.90
2023-04-26T12:34:31.443Z,99.90
2023-04-26T12:36:59.447Z,99.90
2023-04-26T12:39:42.653Z,99.80
2023-04-26T12:42:10.519Z,99.80
2023-04-26T12:44:38.540Z,99.90
2023-04-26T12:47:08.203Z,96.30
2023-04-26T12:49:36.212Z,93.80
2023-04-26T12:52:04.744Z,93.50
2023-04-26T12:54:32.274Z,93.50
2023-04-26T12:57:00.323Z,93.30
2023-04-26T12:59:28.092Z,93.80
2023-04-26T13:01:55.958Z,94.50
2023-04-26T13:04:24.380Z,94.80
2023-04-26T13:06:52.992Z,96.30
2023-04-26T13:09:21.113Z,96.50
2023-04-26T13:11:49.021Z,95.50
2023-04-26T13:14:17.171Z,92.90
2023-04-26T13:16:44.762Z,91.60
2023-04-26T13:19:13.868Z,91.70
2023-04-26T13:21:42.490Z,92.80
2023-04-26T13:24:10.701Z,90.30
2023-04-26T13:26:38.262Z,89.60
2023-04-26T13:29:06.563Z,89.20
2023-04-26T13:31:34.923Z,88.40
2023-04-26T13:34:04.145Z,82.10
2023-04-26T13:36:32.895Z,83.40
2023-04-26T13:39:14.345Z,83.70
2023-04-26T13:41:44.290Z,78.40
2023-04-26T13:44:11.622Z,80.50
2023-04-26T13:46:40.051Z,78.70
2023-04-26T13:49:09.423Z,75.10
2023-04-26T13:51:37.721Z,67.50
2023-04-26T13:54:09.207Z,69.70
2023-04-26T13:56:38.449Z,73.50
2023-04-26T13:59:07.734Z,70.20
2023-04-26T14:01:36.564Z,70.90
2023-04-26T14:04:04.803Z,69.90
2023-04-26T14:06:34.432Z,67.70
2023-04-26T14:09:02.578Z,67.50
2023-04-26T14:11:31.714Z,64.10
2023-04-26T14:13:59.828Z,61.50
2023-04-26T14:16:27.764Z,61.40
2023-04-26T14:18:55.593Z,62.00
2023-04-26T14:21:23.452Z,60.70
2023-04-26T14:23:51.179Z,57.10
2023-04-26T14:26:18.810Z,55.70
2023-04-26T14:28:46.640Z,58.40
2023-04-26T14:31:14.771Z,58.20
2023-04-26T14:33:42.167Z,57.70
2023-04-26T14:36:09.982Z,56.40
2023-04-26T14:38:37.801Z,55.70
2023-04-26T14:41:05.707Z,55.10
2023-04-26T14:43:33.928Z,52.50
2023-04-26T14:46:04.837Z,52.40
2023-04-26T14:48:32.339Z,53.60
2023-04-26T14:51:02.036Z,50.00
2023-04-26T14:53:30.133Z,49.00
2023-04-26T14:55:59.163Z,50.00
2023-04-26T14:58:27.900Z,49.40
2023-04-26T15:00:56.002Z,49.00
2023-04-26T15:03:23.665Z,49.10
2023-04-26T15:05:51.385Z,49.10
2023-04-26T15:08:19.089Z,48.20
2023-04-26T15:10:47.481Z,49.30
2023-04-26T15:13:15.506Z,50.00
2023-04-26T15:15:43.536Z,51.20
2023-04-26T15:18:14.080Z,50.10
2023-04-26T15:20:41.965Z,49.90
2023-04-26T15:23:09.657Z,44.70
2023-04-26T15:25:37.796Z,46.00
2023-04-26T15:28:05.801Z,45.60
2023-04-26T15:30:33.472Z,46.90
2023-04-26T15:33:01.710Z,45.30
2023-04-26T15:35:29.966Z,45.70
2023-04-26T15:37:58.070Z,45.90
2023-04-26T15:40:25.886Z,44.90
2023-04-26T15:42:54.054Z,44.70
2023-04-26T15:45:22.051Z,43.80
2023-04-26T15:47:49.900Z,42.90
2023-04-26T15:50:17.308Z,41.40
2023-04-26T15:52:45.118Z,41.30
2023-04-26T15:55:14.693Z,40.40
2023-04-26T15:57:42.922Z,39.70
2023-04-26T16:00:12.869Z,40.20
2023-04-26T16:02:40.561Z,40.90
2023-04-26T16:05:09.239Z,39.30
2023-04-26T16:07:38.994Z,40.30
2023-04-26T16:10:08.617Z,39.90
2023-04-26T16:12:39.633Z,40.10
2023-04-26T16:15:08.574Z,40.50
2023-04-26T16:17:37.569Z,40.30
2023-04-26T16:20:10.355Z,40.50
2023-04-26T16:22:38.360Z,40.60
2023-04-26T16:25:07.212Z,40.10
2023-04-26T16:27:35.149Z,40.40
2023-04-26T16:30:02.742Z,40.20
2023-04-26T16:32:31.172Z,40.50
2023-04-26T16:34:58.972Z,41.30
2023-04-26T16:37:26.791Z,41.70
2023-04-26T16:39:57.362Z,41.90
2023-04-26T16:42:25.014Z,42.60
2023-04-26T16:44:55.356Z,42.40
2023-04-26T16:47:24.313Z,42.50
2023-04-26T16:49:51.832Z,42.00
2023-04-26T16:52:19.577Z,42.40
2023-04-26T16:54:47.363Z,42.50
2023-04-26T16:57:15.085Z,42.50
2023-04-26T16:59:44.111Z,42.50
2023-04-26T17:02:13.791Z,43.30
2023-04-26T17:04:52.053Z,43.00
2023-04-26T17:07:20.118Z,44.40
2023-04-26T17:09:52.441Z,44.50
2023-04-26T17:12:20.727Z,45.10
2023-04-26T17:14:48.810Z,45.70
2023-04-26T17:17:20.410Z,47.10
2023-04-26T17:19:48.435Z,47.40
2023-04-26T17:22:16.286Z,48.10
2023-04-26T17:24:43.847Z,48.50
2023-04-26T17:27:11.668Z,49.30
2023-04-26T17:29:39.387Z,50.80
2023-04-26T17:32:07.721Z,52.30
2023-04-26T17:34:35.994Z,52.30
2023-04-26T17:37:07.129Z,52.90
2023-04-26T17:39:35.114Z,53.90
2023-04-26T17:42:03.481Z,54.80
2023-04-26T17:44:31.041Z,54.60
2023-04-26T17:46:58.759Z,54.20
2023-04-26T17:49:30.092Z,54.10
2023-04-26T17:51:57.973Z,53.90
2023-04-26T17:54:25.880Z,55.20
2023-04-26T17:56:56.517Z,57.00
2023-04-26T17:59:24.172Z,58.20
2023-04-26T18:01:51.584Z,59.50
2023-04-26T18:04:20.358Z,60.00
2023-04-26T18:06:48.666Z,60.60
2023-04-26T18:09:17.174Z,61.60
2023-04-26T18:11:46.742Z,62.60
2023-04-26T18:14:25.309Z,64.30
2023-04-26T18:16:56.285Z,65.40
2023-04-26T18:19:24.404Z,67.10
2023-04-26T18:21:55.353Z,67.90
2023-04-26T18:41:23.663Z,73.80
2023-04-26T18:44:05.840Z,74.70
2023-04-26T18:49:39.071Z,76.90
2023-04-26T18:52:08.877Z,77.10
2023-04-26T18:54:39.841Z,77.70
2023-04-26T18:57:07.538Z,77.90
2023-04-26T18:59:35.138Z,78.90
2023-04-26T19:02:05.256Z,79.30
2023-04-26T19:04:38.289Z,79.40
2023-04-26T19:07:09.011Z,79.60
2023-04-26T19:09:52.964Z,80.10
2023-04-26T19:12:10.205Z,80.40
2023-04-26T19:14:38.506Z,81.80
2023-04-26T19:17:14.992Z,81.40
2023-04-26T19:19:45.066Z,81.00
2023-04-26T19:22:14.451Z,80.90
2023-04-26T19:24:42.537Z,81.50
2023-04-26T19:27:10.456Z,81.40
2023-04-26T19:29:39.139Z,82.50
2023-04-26T19:32:08.864Z,83.80
2023-04-26T19:35:13.285Z,83.50
2023-04-26T19:37:48.640Z,84.20
2023-04-26T19:40:20.184Z,84.80
2023-04-26T19:42:47.979Z,85.50
2023-04-26T19:45:17.825Z,85.70
2023-04-26T19:47:45.416Z,86.20
2023-04-26T19:50:12.984Z,86.20
2023-04-26T19:52:41.297Z,86.10
2023-04-26T19:55:10.650Z,87.10
2023-04-26T19:57:38.518Z,87.80
2023-04-26T20:00:08.580Z,87.70
2023-04-26T20:02:36.322Z,87.90
2023-04-26T20:05:05.275Z,88.20
2023-04-26T20:07:33.196Z,88.30
2023-04-26T20:10:01.237Z,88.60
2023-04-26T20:12:29.133Z,90.20
2023-04-26T20:14:56.879Z,89.60
2023-04-26T20:17:25.145Z,90.00
2023-04-26T20:20:12.761Z,90.30
2023-04-26T20:22:40.965Z,90.20
2023-04-26T20:25:12.824Z,90.20
2023-04-26T20:27:40.953Z,90.40
2023-04-26T20:30:10.072Z,90.60
2023-04-26T20:32:38.031Z,90.60
2023-04-26T20:35:06.514Z,90.80
2023-04-26T20:37:34.657Z,91.00
2023-04-26T20:40:03.888Z,91.10
2023-04-26T20:42:31.481Z,91.00
2023-04-26T20:45:01.867Z,91.10
2023-04-26T20:47:28.509Z,91.20
2023-04-26T20:49:56.190Z,91.40
2023-04-26T20:52:24.134Z,91.50
2023-04-26T20:54:51.592Z,91.60
2023-04-26T20:57:19.509Z,91.70
2023-04-26T20:59:47.547Z,91.50
2023-04-26T21:02:15.431Z,91.50
2023-04-26T21:04:43.542Z,91.80
2023-04-26T21:07:12.037Z,92.00
2023-04-26T21:09:39.830Z,92.00
2023-04-26T21:12:07.849Z,92.20
2023-04-26T21:14:35.406Z,92.30
2023-04-26T21:17:04.754Z,92.40
2023-04-26T21:19:32.644Z,92.60
2023-04-26T21:22:02.062Z,92.60
2023-04-26T21:24:29.521Z,92.60
2023-04-26T21:26:57.084Z,92.50
2023-04-26T21:29:27.900Z,92.70
2023-04-26T21:31:56.617Z,93.90
2023-04-26T21:34:25.133Z,93.30
2023-04-26T21:36:53.618Z,93.00
2023-04-26T21:39:21.917Z,93.00
2023-04-26T21:41:49.823Z,93.30
2023-04-26T21:44:17.656Z,93.40
2023-04-26T21:46:46.153Z,93.30
2023-04-26T21:49:13.691Z,93.10
2023-04-26T21:51:41.442Z,93.30
2023-04-26T21:54:09.834Z,93.10
2023-04-26T21:56:37.300Z,93.20
2023-04-26T21:59:05.496Z,93.30
2023-04-26T22:01:33.901Z,93.20
2023-04-26T22:04:01.892Z,93.20
2023-04-26T22:06:29.185Z,93.20
2023-04-26T22:08:58.427Z,93.30
2023-04-26T22:11:26.234Z,93.30
2023-04-26T22:13:54.159Z,93.40
2023-04-26T22:16:21.813Z,93.60
2023-04-26T22:18:50.193Z,93.70
2023-04-26T22:21:17.986Z,93.60
2023-04-26T22:23:45.501Z,93.50
2023-04-26T22:26:13.632Z,93.30
2023-04-26T22:28:41.556Z,93.30
2023-04-26T22:31:09.144Z,93.40
2023-04-26T22:33:38.588Z,93.30
2023-04-26T22:36:06.547Z,93.50
2023-04-26T22:38:34.442Z,93.20
2023-04-26T22:41:02.559Z,93.50
2023-04-26T22:43:30.896Z,93.40
2023-04-26T22:45:59.670Z,93.30
2023-04-26T22:48:27.990Z,93.50
2023-04-26T22:50:56.098Z,93.30
2023-04-26T22:53:24.220Z,93.40
2023-04-26T22:55:52.194Z,93.20
2023-04-26T22:58:20.143Z,93.40
2023-04-26T23:00:47.669Z,93.30
2023-04-26T23:03:15.640Z,93.30
2023-04-26T23:05:43.636Z,93.40
2023-04-26T23:08:11.301Z,93.20
2023-04-26T23:10:40.260Z,93.30
2023-04-26T23:13:08.062Z,93.10
2023-04-26T23:15:35.888Z,93.00
2023-04-26T23:18:03.452Z,93.00
2023-04-26T23:20:31.542Z,92.80
2023-04-26T23:22:59.255Z,93.00
2023-04-26T23:25:27.562Z,92.80
2023-04-26T23:27:55.670Z,92.60
2023-04-26T23:30:23.606Z,92.60
2023-04-26T23:32:53.309Z,92.40
2023-04-26T23:35:21.305Z,92.70
2023-04-26T23:37:48.983Z,92.70
2023-04-26T23:40:17.029Z,92.70
2023-04-26T23:42:45.117Z,92.50
2023-04-26T23:45:12.690Z,92.50
2023-04-26T23:47:41.394Z,92.30
2023-04-26T23:50:10.707Z,92.10
2023-04-26T23:52:38.316Z,92.00
2023-04-26T23:55:09.214Z,92.30
2023-04-26T23:57:37.031Z,91.80
